Time;durP1;ratioP1;P1;durP2;ratioP2;P2;SDS_P1;SDS_P2;PMS_P1;PMS_P2;Temp;Humidity;BMP_temperature;BMP_pressure;BME280_temperature;BME280_humidity;BME280_pressure;Samples;Min_cycle;Max_cycle;Signal;HPM_P1;HPM_P2
2022/07/11 00:02:05;;;;;;;0.68;0.40;;;15.40;70.30;15.40;101006.00;;;;4894497;28;103215;-61
2022/07/11 00:04:32;;;;;;;2.08;0.75;;;15.30;70.50;15.30;101017.00;;;;4893146;28;100466;-61
2022/07/11 00:07:00;;;;;;;1.63;0.90;;;15.20;70.70;15.20;101012.00;;;;4894297;28;93572;-60
2022/07/11 00:09:25;;;;;;;1.60;0.47;;;15.20;71.00;15.10;101023.00;;;;4894217;28;93561;-61
2022/07/11 00:11:51;;;;;;;0.60;0.60;;;15.10;71.30;15.10;101007.00;;;;4893556;28;121351;-60
2022/07/11 00:14:17;;;;;;;1.42;0.95;;;15.00;71.60;15.00;101012.00;;;;4894367;28;92756;-61
2022/07/11 00:16:43;;;;;;;1.10;0.70;;;15.00;72.00;14.90;101006.00;;;;4894590;28;92615;-59
2022/07/11 00:19:09;;;;;;;1.13;0.82;;;14.90;72.20;14.90;101002.00;;;;4894046;28;99132;-61
2022/07/11 00:21:36;;;;;;;3.90;0.77;;;14.80;72.70;14.80;101008.00;;;;4894434;28;93735;-60
2022/07/11 00:24:03;;;;;;;1.23;1.13;;;14.80;73.30;14.70;101009.00;;;;4894405;28;92315;-60
2022/07/11 00:26:29;;;;;;;2.67;0.73;;;14.70;73.60;14.60;101014.00;;;;4892393;28;92965;-61
2022/07/11 00:28:55;;;;;;;0.52;0.52;;;14.60;74.10;14.60;101015.00;;;;4893324;28;93489;-61
2022/07/11 00:31:21;;;;;;;0.57;0.30;;;14.50;75.30;14.50;101001.00;;;;4892792;28;107135;-60
2022/07/11 00:33:47;;;;;;;1.17;0.67;;;14.50;75.00;14.40;101008.00;;;;4894423;28;93071;-58
2022/07/11 00:36:13;;;;;;;1.37;0.90;;;14.40;75.30;14.30;101008.00;;;;4893622;28;92725;-60
2022/07/11 00:38:39;;;;;;;1.23;0.63;;;14.30;75.70;14.30;101008.00;;;;4893479;28;123322;-61
2022/07/11 00:41:05;;;;;;;2.43;0.73;;;14.30;76.00;14.20;101004.00;;;;4894719;28;109517;-59
2022/07/11 00:43:36;;;;;;;1.77;0.87;;;14.20;76.50;14.10;101011.00;;;;4893226;28;102595;-59
2022/07/11 00:46:07;;;;;;;0.70;0.50;;;14.10;76.90;14.00;101007.00;;;;4894459;28;93001;-61
2022/07/11 00:48:33;;;;;;;0.70;0.30;;;14.00;77.30;14.00;101002.00;;;;4894365;28;105731;-60
2022/07/11 00:51:02;;;;;;;1.10;0.30;;;14.00;77.90;14.00;101006.00;;;;4893377;28;102986;-61
2022/07/11 00:53:29;;;;;;;0.80;0.67;;;13.90;78.30;13.90;100999.00;;;;4894084;28;99865;-59
2022/07/11 00:55:56;;;;;;;4.40;0.87;;;13.80;78.80;13.90;101001.00;;;;4892990;28;93750;-60
2022/07/11 00:58:22;;;;;;;0.30;0.30;;;13.80;79.10;13.80;101005.00;;;;4893322;28;114973;-58
2022/07/11 01:00:49;;;;;;;0.50;0.50;;;13.80;79.50;13.70;101000.00;;;;4892819;28;122399;-60
2022/07/11 01:03:14;;;;;;;5.40;0.97;;;13.70;79.80;13.70;100999.00;;;;4894339;28;93118;-60
2022/07/11 01:05:40;;;;;;;0.60;0.60;;;13.70;80.10;13.60;100997.00;;;;4892735;28;104201;-61
2022/07/11 01:08:06;;;;;;;0.53;0.40;;;13.60;80.50;13.50;100991.00;;;;4892332;28;123146;-61
2022/07/11 01:10:32;;;;;;;4.03;0.63;;;13.50;81.00;13.50;100993.00;;;;4888766;28;122963;-61
2022/07/11 01:12:58;;;;;;;0.87;0.70;;;13.50;81.70;13.40;100989.00;;;;4893952;28;109849;-61
2022/07/11 01:15:24;;;;;;;0.50;0.50;;;13.40;82.30;13.40;100985.00;;;;4893288;28;92819;-61
2022/07/11 01:17:53;;;;;;;4.73;0.83;;;13.40;83.60;13.30;100998.00;;;;4893574;28;93645;-61
2022/07/11 01:20:22;;;;;;;2.23;0.60;;;13.30;83.20;13.30;100995.00;;;;4893077;28;93583;-61
2022/07/11 01:22:54;;;;;;;3.33;0.60;;;13.20;83.80;13.20;100992.00;;;;4892953;28;109147;-60
2022/07/11 01:25:34;;;;;;;2.13;0.70;;;13.20;84.50;13.20;100995.00;;;;4894243;28;92876;-61
2022/07/11 01:28:03;;;;;;;0.60;0.50;;;13.20;84.90;13.10;101001.00;;;;4893224;28;93964;-61
2022/07/11 01:30:31;;;;;;;0.40;0.40;;;13.10;85.60;13.10;100986.00;;;;4893171;28;93064;-61
2022/07/11 01:32:58;;;;;;;1.27;0.70;;;13.10;86.00;13.10;100994.00;;;;4893973;28;93005;-61
2022/07/11 01:35:24;;;;;;;0.40;0.40;;;13.00;86.70;13.00;100993.00;;;;4894638;28;100532;-60
2022/07/11 01:37:50;;;;;;;0.63;0.57;;;13.00;87.30;13.00;100993.00;;;;4897189;28;93625;-59
2022/07/11 01:40:16;;;;;;;1.23;0.80;;;13.00;88.70;12.90;100989.00;;;;4896162;28;120838;-61
2022/07/11 01:42:43;;;;;;;0.40;0.37;;;12.90;88.70;12.90;100995.00;;;;4896218;28;110785;-60
2022/07/11 01:45:10;;;;;;;0.77;0.47;;;12.90;89.40;12.80;100999.00;;;;4895908;28;93494;-61
2022/07/11 01:47:36;;;;;;;0.40;0.30;;;12.90;90.00;12.80;100990.00;;;;4896415;28;93221;-61
2022/07/11 01:50:03;;;;;;;0.43;0.43;;;12.80;90.20;12.80;100997.00;;;;4896180;28;92676;-59
2022/07/11 01:52:29;;;;;;;1.03;0.77;;;12.70;90.40;12.70;100991.00;;;;4897434;28;92997;-61
2022/07/11 01:54:55;;;;;;;0.93;0.60;;;12.70;90.70;12.70;100992.00;;;;4878398;28;93072;-60
2022/07/11 01:57:21;;;;;;;0.43;0.43;;;12.70;91.20;12.70;100990.00;;;;4895494;28;123392;-60
2022/07/11 01:59:46;;;;;;;0.57;0.57;;;12.70;91.40;12.70;100995.00;;;;4895138;28;122738;-61
2022/07/11 02:02:13;;;;;;;0.60;0.57;;;12.60;91.60;12.70;100992.00;;;;4898004;28;92266;-60
2022/07/11 02:04:40;;;;;;;0.63;0.47;;;12.70;92.10;12.70;101001.00;;;;4896293;28;95808;-60
2022/07/11 02:07:05;;;;;;;0.73;0.40;;;12.70;92.30;12.70;100995.00;;;;4895644;28;93937;-60
2022/07/11 02:09:31;;;;;;;1.03;0.80;;;12.60;92.60;12.60;100993.00;;;;4897425;28;96620;-60
2022/07/11 02:11:57;;;;;;;0.93;0.87;;;12.60;92.90;12.60;101002.00;;;;4895986;28;108921;-60
2022/07/11 02:14:22;;;;;;;0.67;0.67;;;12.60;93.10;12.60;101002.00;;;;4895826;28;109153;-60
2022/07/11 02:16:49;;;;;;;1.67;0.80;;;12.60;93.30;12.60;101008.00;;;;4895347;28;114655;-60
2022/07/11 02:19:15;;;;;;;3.20;0.90;;;12.60;93.70;12.60;101005.00;;;;4895045;28;104550;-60
2022/07/11 02:21:41;;;;;;;0.57;0.57;;;12.60;93.80;12.60;101000.00;;;;4896102;28;93493;-60
2022/07/11 02:24:07;;;;;;;1.10;0.70;;;12.60;93.90;12.60;100993.00;;;;4896583;28;93873;-60
2022/07/11 02:26:33;;;;;;;1.13;1.03;;;12.60;94.10;12.60;100996.00;;;;4895082;28;116050;-60
2022/07/11 02:28:58;;;;;;;0.77;0.77;;;12.60;94.20;12.60;100997.00;;;;4895799;28;122060;-60
2022/07/11 02:31:24;;;;;;;0.97;0.87;;;12.50;94.30;12.60;101000.00;;;;4895509;28;98857;-59
2022/07/11 02:33:49;;;;;;;3.73;1.03;;;12.50;94.60;12.60;100992.00;;;;4878123;28;93782;-60
2022/07/11 02:36:15;;;;;;;3.23;1.10;;;12.50;94.70;12.50;100992.00;;;;4912426;28;121605;-59
2022/07/11 02:38:42;;;;;;;0.70;0.70;;;12.50;94.80;12.40;100993.00;;;;4914755;28;121832;-59
2022/07/11 02:41:08;;;;;;;1.13;0.67;;;12.40;95.10;12.30;100993.00;;;;4916236;28;93003;-60
2022/07/11 02:43:34;;;;;;;1.03;0.80;;;12.40;95.30;12.30;100987.00;;;;4915181;28;109020;-60
2022/07/11 02:45:59;;;;;;;0.73;0.70;;;12.30;95.60;12.20;100995.00;;;;4913658;28;94677;-60
2022/07/11 02:48:25;;;;;;;1.70;1.13;;;12.20;95.90;12.10;100989.00;;;;4914255;28;104426;-60
2022/07/11 02:50:51;;;;;;;0.50;0.50;;;12.50;96.50;12.10;100988.00;;;;4903639;28;98090;-59
2022/07/11 02:53:17;;;;;;;1.33;0.80;;;12.10;96.70;12.00;100989.00;;;;4896501;28;92677;-59
2022/07/11 02:55:43;;;;;;;1.10;1.00;;;12.00;97.00;11.90;100996.00;;;;4895743;28;92955;-57
2022/07/11 02:58:08;;;;;;;1.63;0.90;;;11.90;97.30;11.90;100992.00;;;;4893887;28;121167;-60
2022/07/11 03:00:35;;;;;;;2.07;0.77;;;11.90;97.60;11.80;100998.00;;;;4895203;28;92811;-59
2022/07/11 03:03:01;;;;;;;0.93;0.60;;;11.80;98.00;11.80;100997.00;;;;4895116;28;106710;-60
2022/07/11 03:05:27;;;;;;;1.10;1.00;;;11.80;98.50;11.70;101001.00;;;;4910771;28;92924;-57
2022/07/11 03:07:53;;;;;;;1.27;1.13;;;11.70;99.00;11.70;101005.00;;;;4914687;28;93547;-60
2022/07/11 03:10:19;;;;;;;0.80;0.80;;;11.70;99.40;11.60;101004.00;;;;4915601;28;92921;-60
2022/07/11 03:12:45;;;;;;;1.23;1.10;;;11.60;99.90;11.50;101008.00;;;;4914697;28;92836;-60
2022/07/11 03:15:11;;;;;;;3.93;1.20;;;11.60;99.90;11.50;100993.00;;;;4914713;28;93202;-60
2022/07/11 03:17:38;;;;;;;1.30;0.57;;;11.50;99.90;11.50;100994.00;;;;4914081;28;122166;-59
2022/07/11 03:20:08;;;;;;;0.87;0.60;;;11.50;99.90;11.40;101005.00;;;;4914360;28;92882;-60
2022/07/11 03:22:33;;;;;;;2.03;0.83;;;11.40;99.90;11.40;101009.00;;;;4914912;28;93678;-56
2022/07/11 03:25:05;;;;;;;0.47;0.47;;;11.40;99.90;11.30;101019.00;;;;4914847;28;93193;-60
2022/07/11 03:27:33;;;;;;;4.80;0.80;;;11.30;99.90;11.30;101020.00;;;;4913893;28;93457;-60
2022/07/11 03:29:59;;;;;;;1.90;0.67;;;11.30;99.90;11.30;101010.00;;;;4914867;28;92708;-59
2022/07/11 03:32:25;;;;;;;2.03;0.90;;;11.30;99.90;11.30;101022.00;;;;4913991;28;108999;-60
2022/07/11 03:37:35;;;;;;;1.77;1.27;;;11.30;99.90;11.20;101028.00;;;;4913215;28;92845;-60
2022/07/11 03:40:01;;;;;;;0.83;0.77;;;11.30;99.90;11.30;101016.00;;;;4913918;28;109212;-60
2022/07/11 03:42:26;;;;;;;3.37;0.97;;;11.20;99.90;11.20;101012.00;;;;4914349;28;106964;-58
2022/07/11 03:44:52;;;;;;;0.70;0.70;;;11.20;99.90;11.20;101019.00;;;;4913778;28;121027;-60
2022/07/11 03:47:19;;;;;;;1.80;1.03;;;11.30;99.90;11.30;101029.00;;;;4913342;28;106688;-61
2022/07/11 03:49:46;;;;;;;1.80;1.00;;;11.20;99.90;11.30;101032.00;;;;4910821;28;92815;-58
2022/07/11 03:52:12;;;;;;;1.13;0.90;;;11.30;99.90;11.30;101032.00;;;;4894749;28;99635;-60
2022/07/11 03:54:38;;;;;;;1.00;0.83;;;11.30;99.90;11.30;101022.00;;;;4894919;28;94007;-60
2022/07/11 03:57:04;;;;;;;1.77;1.10;;;11.30;99.90;11.40;101029.00;;;;4875800;28;95613;-61
2022/07/11 03:59:30;;;;;;;1.53;0.93;;;11.30;99.90;11.40;101030.00;;;;4895139;28;92753;-58
2022/07/11 04:01:55;;;;;;;1.67;0.73;;;11.30;99.90;11.40;101033.00;;;;4893958;28;110754;-60
2022/07/11 04:04:21;;;;;;;1.23;1.10;;;11.40;99.90;11.50;101030.00;;;;4900912;28;121145;-60
2022/07/11 04:06:47;;;;;;;1.30;0.73;;;11.40;99.90;11.50;101034.00;;;;4912945;28;120828;-59
2022/07/11 04:09:12;;;;;;;1.30;0.97;;;11.50;99.90;11.60;101026.00;;;;4913425;28;110420;-60
2022/07/11 04:11:38;;;;;;;5.83;1.00;;;11.60;99.90;11.70;101026.00;;;;4912855;28;109271;-60
2022/07/11 04:14:04;;;;;;;2.27;0.70;;;11.60;99.90;11.70;101034.00;;;;4913458;28;122322;-60
2022/07/11 04:16:29;;;;;;;0.80;0.80;;;11.70;99.90;11.80;101029.00;;;;4913308;28;121536;-59
2022/07/11 04:18:55;;;;;;;1.17;0.87;;;11.80;99.90;11.90;101030.00;;;;4911457;28;112649;-59
2022/07/11 04:21:21;;;;;;;3.23;1.07;;;11.80;99.90;12.00;101040.00;;;;4912363;28;108665;-60
2022/07/11 04:23:46;;;;;;;2.97;1.37;;;11.90;99.90;12.10;101035.00;;;;4912925;28;122542;-60
2022/07/11 04:26:12;;;;;;;0.63;0.63;;;12.00;99.90;12.10;101041.00;;;;4912799;28;121081;-59
2022/07/11 04:28:38;;;;;;;0.50;0.50;;;12.10;99.90;12.20;101046.00;;;;4913755;28;101453;-59
2022/07/11 04:31:03;;;;;;;0.70;0.70;;;12.10;99.90;12.30;101050.00;;;;4912947;28;107847;-59
2022/07/11 04:33:29;;;;;;;1.10;0.60;;;12.20;99.90;12.40;101048.00;;;;4913389;28;93755;-59
2022/07/11 04:35:55;;;;;;;1.03;1.00;;;12.30;99.90;12.50;101045.00;;;;4912357;28;101220;-59
2022/07/11 04:38:21;;;;;;;5.10;0.83;;;12.40;99.90;12.60;101053.00;;;;4913585;28;92878;-60
2022/07/11 04:40:48;;;;;;;2.27;1.17;;;12.50;99.90;12.70;101048.00;;;;4911798;28;93148;-59
2022/07/11 04:43:14;;;;;;;0.63;0.63;;;12.80;99.90;12.80;101041.00;;;;4904764;28;93084;-60
2022/07/11 04:45:40;;;;;;;1.10;0.70;;;12.70;99.90;12.90;101052.00;;;;4889350;28;110107;-60
2022/07/11 04:48:06;;;;;;;1.77;0.93;;;12.90;99.90;13.00;101046.00;;;;4889925;28;95260;-58
2022/07/11 04:50:32;;;;;;;1.63;1.10;;;13.00;99.90;13.10;101056.00;;;;4893372;28;108289;-61
2022/07/11 04:52:57;;;;;;;0.50;0.50;;;13.10;99.90;13.20;101055.00;;;;4894302;28;109806;-57
2022/07/11 04:55:23;;;;;;;1.17;0.90;;;13.20;99.90;13.30;101052.00;;;;4893142;28;116567;-60
2022/07/11 04:57:50;;;;;;;0.80;0.70;;;13.20;99.90;13.40;101048.00;;;;4893840;28;93069;-61
2022/07/11 05:00:16;;;;;;;3.20;0.80;;;13.30;99.90;13.50;101064.00;;;;4894037;28;93526;-60
2022/07/11 05:02:41;;;;;;;1.17;0.70;;;13.40;99.90;13.70;101062.00;;;;4893509;28;95088;-60
2022/07/11 05:05:08;;;;;;;0.50;0.50;;;13.60;99.90;13.80;101061.00;;;;4904983;28;122653;-60
2022/07/11 05:07:33;;;;;;;0.73;0.73;;;13.70;99.90;13.90;101069.00;;;;4913937;28;92745;-61
2022/07/11 05:09:59;;;;;;;1.53;0.83;;;13.80;99.90;14.00;101062.00;;;;4914450;28;108216;-60
2022/07/11 05:12:25;;;;;;;1.37;0.97;;;13.90;99.90;14.10;101067.00;;;;4916787;28;104847;-60
2022/07/11 05:14:50;;;;;;;4.00;0.80;;;14.00;99.90;14.20;101068.00;;;;4915429;28;122333;-60
2022/07/11 05:17:16;;;;;;;2.03;0.60;;;14.10;99.90;14.30;101076.00;;;;4917050;28;92306;-61
2022/07/11 05:19:42;;;;;;;8.13;0.97;;;14.20;99.90;14.50;101077.00;;;;4916394;28;108863;-61
2022/07/11 05:22:07;;;;;;;1.73;0.67;;;14.30;99.90;14.60;101089.00;;;;4915901;28;121605;-57
2022/07/11 05:24:33;;;;;;;2.07;1.17;;;14.50;99.90;14.70;101084.00;;;;4914756;28;122064;-60
2022/07/11 05:26:59;;;;;;;2.90;0.87;;;14.60;99.90;14.80;101087.00;;;;4915651;28;110857;-60
2022/07/11 05:29:24;;;;;;;2.60;1.20;;;14.70;99.90;15.00;101083.00;;;;4916293;28;109874;-61
2022/07/11 05:31:50;;;;;;;0.70;0.70;;;14.80;99.90;15.10;101099.00;;;;4915464;28;116579;-61
2022/07/11 05:34:17;;;;;;;0.77;0.40;;;15.00;99.90;15.20;101088.00;;;;4915711;28;93771;-61
2022/07/11 05:36:43;;;;;;;1.92;0.63;;;15.10;99.80;15.30;101082.00;;;;4916261;28;93221;-61
2022/07/11 05:39:09;;;;;;;1.67;0.63;;;15.20;99.40;15.40;101080.00;;;;4916177;28;92868;-60
2022/07/11 05:41:35;;;;;;;1.27;1.17;;;15.30;99.20;15.60;101084.00;;;;4916032;28;106242;-60
2022/07/11 05:44:01;;;;;;;3.00;0.93;;;15.40;99.00;15.70;101081.00;;;;4915550;28;92853;-59
2022/07/11 05:46:27;;;;;;;0.55;0.47;;;15.60;98.50;15.80;101094.00;;;;4917003;28;92874;-62
2022/07/11 05:48:53;;;;;;;0.90;0.57;;;15.70;98.00;15.90;101096.00;;;;4915529;28;107726;-62
2022/07/11 05:51:18;;;;;;;0.90;0.63;;;15.80;97.70;16.10;101085.00;;;;4900606;28;93484;-58
2022/07/11 05:53:45;;;;;;;0.75;0.30;;;15.90;97.50;16.20;101096.00;;;;4896394;28;93348;-60
2022/07/11 05:56:10;;;;;;;3.72;1.20;;;16.10;97.00;16.30;101100.00;;;;4896995;28;92978;-61
2022/07/11 05:58:36;;;;;;;3.13;0.65;;;16.20;96.50;16.40;101094.00;;;;4896678;28;92806;-61
2022/07/11 06:01:03;;;;;;;2.45;0.85;;;16.30;96.20;16.50;101100.00;;;;4897101;28;93427;-61
2022/07/11 06:03:29;;;;;;;0.95;0.70;;;16.40;95.90;16.60;101096.00;;;;4896594;28;93075;-60
2022/07/11 06:05:55;;;;;;;1.30;0.90;;;16.50;95.60;16.80;101089.00;;;;4915598;28;91992;-61
2022/07/11 06:11:05;;;;;;;0.40;0.40;;;16.80;95.20;17.30;101102.00;;;;4915669;28;92981;-61
2022/07/11 06:13:31;;;;;;;0.73;0.70;;;17.10;94.80;17.50;101103.00;;;;4914867;28;93855;-61
2022/07/11 06:15:56;;;;;;;0.88;0.85;;;17.30;94.30;17.60;101106.00;;;;4916170;28;93050;-61
2022/07/11 06:18:23;;;;;;;1.45;0.60;;;17.50;93.40;17.70;101111.00;;;;4916149;28;92786;-59
2022/07/11 06:20:49;;;;;;;1.10;0.75;;;17.60;92.90;17.80;101096.00;;;;4914743;28;94137;-61
2022/07/11 06:23:15;;;;;;;0.63;0.50;;;17.70;92.20;17.80;101109.00;;;;4915226;28;95582;-60
2022/07/11 06:25:40;;;;;;;2.10;0.63;;;17.70;91.70;17.90;101109.00;;;;4915580;28;93306;-61
2022/07/11 06:28:06;;;;;;;1.13;0.82;;;17.80;91.40;18.00;101110.00;;;;4914610;28;108947;-61
2022/07/11 06:30:33;;;;;;;2.30;1.15;;;17.90;91.00;18.10;101111.00;;;;4897231;28;93130;-58
2022/07/11 06:32:59;;;;;;;0.47;0.40;;;18.00;90.70;18.20;101115.00;;;;4915596;28;92862;-59
2022/07/11 06:35:24;;;;;;;1.55;0.95;;;18.10;90.30;18.30;101117.00;;;;4914237;28;96351;-59
2022/07/11 06:37:50;;;;;;;0.50;0.50;;;18.10;90.00;18.40;101112.00;;;;4915042;28;93702;-58
2022/07/11 06:40:17;;;;;;;0.95;0.47;;;18.30;90.00;18.50;101118.00;;;;4913930;28;122150;-59
2022/07/11 06:42:43;;;;;;;0.63;0.63;;;18.40;89.30;18.70;101123.00;;;;4915794;28;93349;-60
2022/07/11 06:45:10;;;;;;;0.50;0.38;;;19.00;88.80;18.80;101122.00;;;;4915255;28;92636;-59
2022/07/11 06:47:35;;;;;;;5.18;0.65;;;18.60;86.90;18.90;101122.00;;;;4915297;28;92784;-60
2022/07/11 06:50:02;;;;;;;2.95;1.00;;;18.80;85.30;19.00;101115.00;;;;4909327;28;123315;-60
2022/07/11 06:52:27;;;;;;;0.52;0.50;;;18.80;84.40;19.00;101112.00;;;;4895735;28;106798;-60
2022/07/11 06:54:53;;;;;;;1.02;0.93;;;18.90;84.00;19.30;101123.00;;;;4894920;28;99623;-58
2022/07/11 06:57:19;;;;;;;1.08;0.75;;;19.10;84.30;19.60;101112.00;;;;4896315;28;92924;-60
2022/07/11 06:59:44;;;;;;;2.88;0.50;;;19.30;83.70;19.80;101128.00;;;;4894655;28;108107;-60
2022/07/11 07:02:10;;;;;;;0.98;0.55;;;19.60;83.00;20.10;101128.00;;;;4893453;28;122893;-59
2022/07/11 07:04:36;;;;;;;0.52;0.47;;;19.90;82.10;20.40;101126.00;;;;4902246;28;111617;-59
2022/07/11 07:07:02;;;;;;;1.85;0.43;;;20.10;80.50;20.60;101130.00;;;;4914300;28;108373;-60
2022/07/11 07:09:28;;;;;;;1.05;0.60;;;20.40;78.50;20.90;101125.00;;;;4914183;28;102804;-60
2022/07/11 07:11:54;;;;;;;0.40;0.40;;;20.60;77.60;21.20;101122.00;;;;4914040;28;121758;-61
2022/07/11 07:14:21;;;;;;;1.45;0.55;;;20.90;75.40;21.20;101134.00;;;;4914921;28;92697;-62
2022/07/11 07:16:46;;;;;;;0.45;0.30;;;21.00;72.90;21.20;101132.00;;;;4915295;28;92929;-60
2022/07/11 07:19:12;;;;;;;0.32;0.30;;;21.10;69.80;21.10;101132.00;;;;4914831;28;92494;-60
2022/07/11 07:21:38;;;;;;;2.45;0.73;;;21.10;70.10;21.20;101137.00;;;;4914567;28;92864;-59
2022/07/11 07:24:05;;;;;;;7.03;0.68;;;21.00;69.80;21.30;101136.00;;;;4913447;28;111264;-61
2022/07/11 07:26:31;;;;;;;1.95;0.73;;;21.10;69.00;21.50;101138.00;;;;4896771;28;93869;-61
2022/07/11 07:28:58;;;;;;;0.40;0.40;;;21.30;69.30;21.70;101134.00;;;;4913994;28;112362;-62
2022/07/11 07:31:24;;;;;;;1.08;0.70;;;21.50;68.00;21.70;101131.00;;;;4914426;28;93515;-60
2022/07/11 07:33:50;;;;;;;1.17;0.43;;;21.60;66.50;21.50;101134.00;;;;4911960;28;93100;-60
2022/07/11 07:36:16;;;;;;;1.02;0.68;;;21.50;65.20;21.20;101140.00;;;;4914593;28;93369;-60
2022/07/11 07:38:46;;;;;;;1.08;0.50;;;21.30;65.00;21.00;101134.00;;;;4913570;28;122237;-60
2022/07/11 07:41:15;;;;;;;2.13;0.57;;;21.00;65.40;20.80;101134.00;;;;4913877;28;93910;-60
2022/07/11 07:43:41;;;;;;;2.42;0.70;;;20.80;65.80;20.80;101137.00;;;;4915510;28;92548;-61
2022/07/11 07:46:11;;;;;;;4.47;0.68;;;20.70;66.90;21.00;101130.00;;;;4914809;28;92635;-62
2022/07/11 07:48:40;;;;;;;0.90;0.75;;;20.80;67.10;21.20;101134.00;;;;4914078;28;95847;-61
2022/07/11 07:51:06;;;;;;;0.35;0.35;;;21.00;66.00;21.30;101131.00;;;;4900575;28;93699;-61
2022/07/11 07:53:32;;;;;;;1.05;0.47;;;21.10;65.90;21.50;101139.00;;;;4894485;28;92753;-61
2022/07/11 07:55:58;;;;;;;0.70;0.68;;;21.20;65.00;21.50;101139.00;;;;4909026;28;93023;-61
2022/07/11 07:58:24;;;;;;;3.35;1.05;;;21.30;63.00;21.40;101136.00;;;;4894353;28;102852;-61
2022/07/11 08:03:33;;;;;;;3.67;0.70;;;21.30;63.90;21.70;101135.00;;;;4895078;28;92973;-60
2022/07/11 08:05:59;;;;;;;0.40;0.35;;;21.60;62.80;21.90;101140.00;;;;4912111;28;107514;-62
2022/07/11 08:08:25;;;;;;;3.35;0.55;;;21.70;63.20;22.20;101138.00;;;;4913314;28;121755;-61
2022/07/11 08:10:51;;;;;;;0.82;0.20;;;21.90;63.20;22.50;101139.00;;;;4912530;28;120548;-60
2022/07/11 08:13:19;;;;;;;4.28;0.50;;;22.20;62.10;22.50;101131.00;;;;4914097;28;92738;-61
2022/07/11 08:15:46;;;;;;;3.22;0.73;;;22.40;59.90;22.30;101132.00;;;;4895770;28;93947;-61
2022/07/11 08:18:12;;;;;;;0.50;0.43;;;22.30;59.30;22.00;101136.00;;;;4913368;28;94403;-61
2022/07/11 08:20:37;;;;;;;1.75;0.68;;;22.10;59.40;22.00;101131.00;;;;4913891;28;92997;-61
2022/07/11 08:23:06;;;;;;;2.05;0.57;;;21.90;59.90;22.10;101134.00;;;;4913192;28;109840;-60
2022/07/11 08:25:32;;;;;;;0.47;0.47;;;22.00;59.50;22.10;101134.00;;;;4913991;28;92963;-63
2022/07/11 08:27:58;;;;;;;2.13;0.98;;;22.00;59.20;22.20;101134.00;;;;4913881;28;94812;-61
2022/07/11 08:30:25;;;;;;;0.77;0.70;;;22.00;59.50;22.50;101134.00;;;;4913215;28;122952;-61
2022/07/11 08:32:51;;;;;;;0.68;0.68;;;22.30;59.70;22.70;101143.00;;;;4920113;28;92237;-61
2022/07/11 08:35:17;;;;;;;1.17;0.70;;;22.50;58.80;22.60;101143.00;;;;4920427;28;92624;-60
2022/07/11 08:37:43;;;;;;;1.75;0.47;;;22.40;56.80;22.30;101136.00;;;;4912654;28;123455;-61
2022/07/11 08:40:09;;;;;;;0.25;0.20;;;22.30;56.60;22.20;101141.00;;;;4911653;28;122738;-61
2022/07/11 08:42:44;;;;;;;1.75;0.80;;;22.20;57.30;22.20;101130.00;;;;4914339;28;93131;-61
2022/07/11 08:45:14;;;;;;;1.90;0.63;;;22.10;57.40;22.20;101134.00;;;;4916539;28;92719;-61
2022/07/11 08:47:41;;;;;;;4.22;0.63;;;22.10;57.60;22.10;101142.00;;;;4917737;28;93388;-61
2022/07/11 08:50:09;;;;;;;0.43;0.43;;;22.00;57.50;22.20;101134.00;;;;4910870;28;114105;-61
2022/07/11 08:52:37;;;;;;;2.00;0.77;;;22.00;58.70;22.20;101130.00;;;;4897307;28;92876;-61
2022/07/11 08:55:06;;;;;;;2.60;0.73;;;22.10;57.60;22.30;101132.00;;;;4897328;28;93024;-60
2022/07/11 08:57:36;;;;;;;2.03;0.50;;;22.10;57.80;22.40;101121.00;;;;4895084;28;92967;-61
2022/07/11 09:00:07;;;;;;;0.32;0.32;;;22.20;57.70;22.40;101114.00;;;;4896558;28;104306;-61
2022/07/11 09:02:33;;;;;;;0.45;0.45;;;22.20;56.40;22.20;101130.00;;;;4897762;28;92794;-60
2022/07/11 09:05:05;;;;;;;2.95;0.85;;;22.10;56.10;22.30;101129.00;;;;4907466;28;93813;-61
2022/07/11 09:07:33;;;;;;;2.00;0.60;;;22.20;56.40;22.50;101127.00;;;;4916581;28;93561;-61
2022/07/11 09:09:59;;;;;;;1.15;0.85;;;22.30;56.30;22.60;101122.00;;;;4915753;28;93930;-60
2022/07/11 09:12:25;;;;;;;1.13;0.80;;;22.40;56.20;22.60;101119.00;;;;4916517;28;93094;-61
2022/07/11 09:14:54;;;;;;;1.27;0.65;;;22.40;55.20;22.50;101116.00;;;;4916206;28;94321;-61
2022/07/11 09:17:28;;;;;;;0.93;0.63;;;22.40;55.40;22.40;101117.00;;;;4915931;28;93131;-61
2022/07/11 09:19:54;;;;;;;0.40;0.40;;;22.30;54.00;22.20;101126.00;;;;4915022;28;109770;-63
2022/07/11 09:25:21;;;;;;;0.40;0.40;;;22.00;54.70;22.20;101124.00;;;;4914627;28;92781;-61
2022/07/11 09:27:56;;;;;;;2.58;0.38;;;22.00;55.00;22.30;101107.00;;;;4916071;28;94037;-61
2022/07/11 09:30:26;;;;;;;0.88;0.68;;;22.10;55.20;22.50;101113.00;;;;4915409;28;93675;-60
2022/07/11 09:32:58;;;;;;;0.98;0.63;;;22.20;55.00;22.60;101113.00;;;;4916221;28;92830;-60
2022/07/11 09:35:28;;;;;;;0.40;0.40;;;22.30;55.30;22.90;101117.00;;;;4915868;28;93006;-61
2022/07/11 09:37:54;;;;;;;0.40;0.38;;;22.50;54.70;23.10;101114.00;;;;4916214;28;93220;-58
2022/07/11 09:40:23;;;;;;;3.33;0.88;;;22.80;53.50;23.20;101116.00;;;;4914622;28;123315;-60
2022/07/11 09:42:52;;;;;;;0.40;0.40;;;22.90;53.30;23.30;101105.00;;;;4916938;28;92743;-61
2022/07/11 09:45:20;;;;;;;0.40;0.17;;;23.00;53.30;23.60;101107.00;;;;4916084;28;93186;-61
2022/07/11 09:47:52;;;;;;;1.92;0.82;;;23.20;53.30;23.90;101108.00;;;;4915794;28;103895;-60
2022/07/11 09:50:19;;;;;;;1.75;0.70;;;23.50;52.50;24.00;101105.00;;;;4908149;28;92783;-60
2022/07/11 09:53:09;;;;;;;1.13;0.20;;;23.70;51.60;24.20;101109.00;;;;4897189;28;92950;-61
2022/07/11 09:55:46;;;;;;;0.82;0.38;;;23.80;50.70;24.20;101105.00;;;;4896024;28;93699;-61
2022/07/11 09:58:14;;;;;;;1.42;0.38;;;23.90;50.10;24.10;101102.00;;;;4896050;28;93425;-61
2022/07/11 10:00:41;;;;;;;0.68;0.68;;;23.90;49.30;24.10;101111.00;;;;4896476;28;93011;-61
2022/07/11 10:03:10;;;;;;;0.40;0.22;;;23.80;49.20;24.10;101104.00;;;;4897184;28;93004;-60
2022/07/11 10:05:36;;;;;;;0.30;0.20;;;23.80;49.20;24.20;101107.00;;;;4911853;28;92808;-61
2022/07/11 10:08:03;;;;;;;3.92;0.10;;;23.90;49.40;24.30;101102.00;;;;4915599;28;92698;-60
2022/07/11 10:10:31;;;;;;;0.10;0.10;;;24.00;49.40;24.40;101095.00;;;;4915261;28;93308;-64
2022/07/11 10:12:58;;;;;;;0.65;0.65;;;24.00;48.50;24.50;101088.00;;;;4916752;28;92204;-61
2022/07/11 10:15:34;;;;;;;4.07;0.40;;;24.10;48.10;24.60;101089.00;;;;4915917;28;92832;-62
2022/07/11 10:18:06;;;;;;;0.73;0.38;;;24.30;47.80;24.60;101094.00;;;;4915336;28;93830;-62
2022/07/11 10:20:58;;;;;;;1.60;0.30;;;24.30;47.50;24.80;101093.00;;;;4915182;28;93939;-61
2022/07/11 10:23:35;;;;;;;1.63;0.40;;;24.30;47.90;25.10;101100.00;;;;4897958;28;93191;-62
2022/07/11 10:26:41;;;;;;;0.95;0.63;;;24.60;47.80;25.50;101096.00;;;;4915596;28;92724;-62
2022/07/11 10:29:35;;;;;;;0.17;0.17;;;25.00;47.60;26.00;101102.00;;;;4896343;28;116340;-62
2022/07/11 10:32:10;;;;;;;2.97;0.40;;;25.40;47.20;26.40;101089.00;;;;4896351;28;112731;-62
2022/07/11 10:34:36;;;;;;;0.68;0.10;;;25.80;46.10;26.70;101100.00;;;;4909473;28;92821;-62
2022/07/11 10:37:04;;;;;;;0.40;0.25;;;26.10;45.10;26.80;101110.00;;;;4877174;28;93016;-62
2022/07/11 10:39:32;;;;;;;0.77;0.70;;;26.30;44.70;26.90;101107.00;;;;4895562;28;93330;-62
2022/07/11 10:42:00;;;;;;;0.20;0.20;;;26.30;44.00;27.00;101100.00;;;;4895840;28;93078;-62
2022/07/11 10:44:28;;;;;;;0.70;0.40;;;26.40;44.00;27.10;101107.00;;;;4895783;28;92869;-61
2022/07/11 10:46:54;;;;;;;0.00;0.00;;;26.50;43.30;27.30;101104.00;;;;4895483;28;93911;-62
2022/07/11 10:49:48;;;;;;;0.43;0.43;;;26.70;42.80;27.30;101114.00;;;;4894903;28;121719;-62
2022/07/11 10:52:22;;;;;;;0.28;0.28;;;26.70;42.50;27.60;101110.00;;;;4874316;28;123026;-62
2022/07/11 10:55:35;;;;;;;0.80;0.10;;;26.90;42.20;28.00;101109.00;;;;4876116;28;92860;-62
2022/07/11 10:58:21;;;;;;;2.92;0.20;;;27.30;41.80;28.50;101107.00;;;;4876572;28;92705;-61